x

Central Dixon Entrance Buoy (46145) Wave Buoy

10:00am - Sat 1st Aug 2015 All times are PDT. -7 hours from GMT.

  • Sig Wave height 1.3ft
  • Peak Period 6s
  • Wind
    7mph, 9mph gusts
  • Sea Temp 57°f
  • Air Temp 57°f
  • Sea Pressure 1021.9mb
  • Central Dixon Entrance Buoy
  • Central Dixon Entrance Buoy

More Historic Weather Station data

Upgrade to MSW Pro to gain access to the past 30 days of data for over 8000 Wavebouys and Weather Stations around the globe.

Join Pro

Comparision Forecast

View Surf forecast
   
Sat 08/01 10:00am 1.3ft 6s 7 9 mph 1021.9mb 57f 57f
9:00am 1.3ft 7s 7 9 mph 1021.9mb 56f 57f
8:00am 1.6ft 7s 4
mph
1021.7mb 56f 56f
7:00am 1.6ft 8s 7
mph
1021.7mb 55f 56f
6:00am 1.6ft 8s 2 4 mph 1021.6mb 55f 56f
5:00am 1.6ft 8s 2 4 mph 1021.3mb 55f 56f
4:00am 1.6ft 7s 4
mph
1021.2mb 55f 56f
3:00am 1.6ft 8s 4 7 mph 1021.2mb 56f 56f
2:00am 1.6ft 7s 7 9 mph 1021.1mb 56f 56f
1:00am 1.6ft 7s 7 9 mph 1021.1mb 56f 56f
12:00am 2ft 6s 9
mph
1021.1mb 57f 57f
Fri 07/31 11:00pm 1.6ft 6s 9 11 mph 1021.1mb 57f 57f
10:00pm 2ft 7s 11 13 mph 1020.9mb 57f 58f
9:00pm 1.6ft 7s 9 13 mph 1020.7mb 57f 58f
8:00pm 1.6ft 7s 13 18 mph 1020.4mb 57f 57f
7:00pm 2ft 7s 9 11 mph 1020.6mb 56f 58f
6:00pm 2.5ft 8s 4 9 mph 1020.5mb 56f 58f
5:00pm 3ft 8s 4 9 mph 1020.4mb 56f 58f
4:00pm 2.5ft 8s 9
mph
1020.1mb 56f 57f
3:00pm 3ft 7s 16 18 mph 1019.6mb 57f 57f
2:00pm 2.5ft 7s 13 16 mph 1019.1mb 57f 58f
1:00pm 2.5ft 7s 9 11 mph 1018.8mb 57f 58f
12:00pm 2.5ft 7s 11 13 mph 1018.6mb 57f 58f
11:00am 2ft 7s 4 7 mph 1018.4mb 56f 58f
10:00am 2ft 7s 7 9 mph 1018.2mb 56f 58f
9:00am 2.5ft 7s 9
mph
1018mb 56f 57f
8:00am 2.5ft 7s 7 9 mph 1017.8mb 56f 57f
7:00am 2.5ft 7s 9 11 mph 1017.4mb 56f 57f
6:00am 2.5ft 7s 11 13 mph 1017.1mb 56f 57f
5:00am 2.5ft 7s 13 16 mph 1017mb 56f 57f
4:00am 3ft 8s 16 18 mph 1016.9mb 56f 57f
3:00am 2.5ft 7s 13 16 mph 1016.8mb 56f 57f
2:00am 2.5ft 7s 13 16 mph 1017mb 56f 57f
1:00am 3ft 7s 11 13 mph 1017.4mb 56f 57f
12:00am 3ft 6s 11 13 mph 1017.8mb 56f 57f
Thu 07/30 11:00pm 2.5ft 6s 13 16 mph 1018.2mb 56f 58f
10:00pm 2.5ft 6s 11 13 mph 1018.2mb 56f 57f
9:00pm 2ft 7s 7 9 mph 1018.3mb 56f 57f
8:00pm 2.5ft 8s 11 13 mph 1018.5mb 57f 58f
7:00pm 2.5ft 8s 9
mph
1018.9mb 57f 58f
6:00pm 2.5ft 4s 11 13 mph 1019.2mb 56f 58f
5:00pm 3ft 4s 11 13 mph 1019.4mb 56f 58f
4:00pm 3ft 4s 16 20 mph 1019.4mb 56f 57f
3:00pm 3.5ft 8s 18 22 mph 1019.6mb 56f 57f
2:00pm 3ft 8s 18 20 mph 1019.8mb 56f 56f
1:00pm 3ft 8s 18 22 mph 1020.1mb 56f 56f
12:00pm 2.5ft 8s 16 20 mph 1020.5mb 56f 56f
11:00am 2.5ft 7s 18 20 mph 1020.6mb 56f 56f
10:00am 2.5ft 8s 16 22 mph 1021mb 56f 56f
9:00am 2.5ft 8s 16 18 mph 1021.4mb 57f 55f
8:00am 2.5ft 7s 11 13 mph 1021.5mb 57f 56f
7:00am 2.5ft 8s 11
mph
1021.6mb 57f 57f
6:00am 2.5ft 9s 7 9 mph 1021.8mb 57f 56f
5:00am 2.5ft 8s 9 11 mph 1022.2mb 57f 56f
4:00am 2.5ft 9s 7
mph
1022.4mb 57f 57f
3:00am 3ft 9s 9
mph
1022.2mb 56f 57f
2:00am 3ft 8s 9
mph
1022.4mb 56f 56f
1:00am 3.5ft 8s 7 9 mph 1022.6mb 56f 56f
12:00am 3.5ft 7s 9
mph
1022.8mb 56f 56f
Wed 07/29 11:00pm 3ft 8s 9 11 mph 1023.2mb 57f 56f
10:00pm 3.5ft 8s 7 9 mph 1023.4mb 57f 57f
9:00pm 3ft 8s 4
mph
1023.7mb 57f 57f
8:00pm 3ft 8s 4 7 mph 1023.9mb 57f 57f
7:00pm 3.5ft 8s 2 4 mph 1024.1mb 57f 57f
6:00pm 3ft 9s 7 9 mph 1024.3mb 57f 57f
5:00pm 3.5ft 8s 4
mph
1024.9mb 57f 56f
4:00pm 3.5ft 9s 2
mph
1025.2mb 57f 56f
3:00pm 3.5ft 8s 4 7 mph 1025.1mb 57f 57f
2:00pm 4ft 8s 4 7 mph 1024.7mb 57f 57f
1:00pm 3.5ft 9s 2 4 mph 1024.5mb 57f 58f
12:00pm 3.5ft 8s 7 9 mph 1024.2mb 56f 57f
11:00am 4ft 8s 7 9 mph 1024.1mb 56f 57f
10:00am 3.5ft 9s 9 11 mph 1023.9mb 56f 56f
8:00am 4ft 8s 11 13 mph 1023.7mb 56f 56f
7:00am 4ft 8s 7 9 mph 1023.4mb 57f 56f
6:00am 4ft 9s 9 11 mph 1023.4mb 57f 55f
5:00am 3.5ft 10s 16 18 mph 1023.2mb 57f 55f
4:00am 3.5ft 9s 9 11 mph 1023mb 57f 55f
3:00am 4ft 9s 13 18 mph 1022.9mb 56f 55f
2:00am 4.5ft 10s 9 11 mph 1022.5mb 56f 56f
1:00am 4.5ft 8s 13 16 mph 1022.4mb 56f 56f
12:00am 4.5ft 9s 9 11 mph 1022.2mb 56f 56f
Tue 07/28 11:00pm 4.5ft 8s 11 18 mph 1021.8mb 56f 56f
10:00pm 4.5ft 9s 9
mph
1021.6mb 57f 56f
9:00pm 5ft 8s 9 11 mph 1021.5mb 56f 56f
8:00pm 5ft 8s 11 13 mph 1021.5mb 56f 56f
7:00pm 5ft 10s 11 13 mph 1021.4mb 57f 56f